»·PEaware :: N925DM KEGE-KBUF

N925DM :: KEGE-KBUF

FLIGHT INFORMATION

Flight Status: Arrived
Operator: Privately registered:
United States
More flights under this callsign
Pilot: Kenny J. (11300)
Aircraft: GATES LEARJET LEARJET 35/36
(LJ35)
More flights by this aircraft type
Origin: KEGE Eagle Co Regl
United States
Destination: KBUF Buffalo Niagara Intl
United States
More flights between these airports :: More routes between these airports
Route: BUF DCT YQO DCT PMM DCT DBQ J100 OBH DCT GLL DCT RLG V8 UVTUH V591 SXW
File this flight plan on PilotEdge
Remarks:
Altitude:
(Current/Filed)
35,000ft
Speed:
(Current/Filed)
300kts
Departed: 26-Sep-16 03:50 AM
Arrived: 26-Sep-16 06:54 AM
Distance/Time
Traveled:
1280nm/3:03
Distance/Time
To Go:
Arrived

Flight Plot

Page will automatically refresh every two minutes.


Map Options




Map Legend


Flown Route
Filed Route
Departure Airport
Arrival Airport
Navaid (VOR, NDB)
Fix

Horizontal Profiles

Position Reports

Time Latitude Longitude Heading Altitude Ground
Speed
26-Sep-16 03:40 39.641918 -106.905925 261 6517ft 0kts
26-Sep-16 03:41 39.641918 -106.905925 261 6517ft 0kts
26-Sep-16 03:42 39.641918 -106.905925 261 6517ft 0kts
26-Sep-16 03:42 39.641918 -106.905925 261 6517ft 0kts
26-Sep-16 03:43 39.642037 -106.906138 338 6517ft 5kts
26-Sep-16 03:44 39.643047 -106.903423 81 6517ft 10kts
26-Sep-16 03:45 39.643732 -106.900153 359 6517ft 5kts
26-Sep-16 03:46 39.643904 -106.905143 262 6518ft 84kts
26-Sep-16 03:47 39.636261 -106.976205 262 9513ft 245kts
26-Sep-16 03:48 39.670556 -107.045263 338 14682ft 256kts
26-Sep-16 03:49 39.745172 -107.069066 13 17668ft 329kts
26-Sep-16 03:50 39.804814 -106.977726 61 21563ft 361kts
26-Sep-16 03:51 39.850630 -106.856213 61 24790ft 382kts
26-Sep-16 03:52 39.897835 -106.728495 61 27529ft 399kts
26-Sep-16 03:53 39.946492 -106.596032 62 29847ft 412kts
26-Sep-16 03:54 39.995707 -106.461364 62 32506ft 404kts
26-Sep-16 03:55 40.034861 -106.324732 67 34741ft 400kts
26-Sep-16 03:56 40.072466 -106.187518 67 36552ft 398kts
26-Sep-16 03:57 40.109921 -106.049906 67 37643ft 411kts
26-Sep-16 03:58 40.149406 -105.903935 68 37679ft 438kts
26-Sep-16 03:59 40.190727 -105.750183 68 37678ft 455kts
26-Sep-16 04:00 40.233271 -105.590891 68 37583ft 469kts
26-Sep-16 04:01 40.276438 -105.428197 68 37540ft 473kts
26-Sep-16 04:02 40.319396 -105.265226 68 37511ft 471kts
26-Sep-16 04:03 40.362004 -105.102534 68 37485ft 470kts
26-Sep-16 04:04 40.404297 -104.939964 68 37480ft 469kts
26-Sep-16 04:05 40.446189 -104.777853 67 37480ft 466kts
26-Sep-16 04:07 40.487371 -104.617430 68 37478ft 462kts
26-Sep-16 04:08 40.520473 -104.453826 74 37478ft 461kts
26-Sep-16 04:09 40.548096 -104.290121 74 37476ft 458kts
26-Sep-16 04:10 40.575310 -104.126656 74 37473ft 455kts
26-Sep-16 04:11 40.602164 -103.963732 74 37471ft 454kts
26-Sep-16 04:12 40.628699 -103.801246 74 37469ft 453kts
26-Sep-16 04:13 40.654977 -103.638773 74 37458ft 453kts
26-Sep-16 04:14 40.680969 -103.476541 74 37453ft 453kts
26-Sep-16 04:15 40.706832 -103.313542 74 37450ft 454kts
26-Sep-16 04:16 40.732493 -103.150242 74 37449ft 454kts
26-Sep-16 04:17 40.757954 -102.986623 74 37450ft 455kts
26-Sep-16 04:18 40.783210 -102.822689 74 37450ft 455kts
26-Sep-16 04:19 40.808255 -102.658490 74 37451ft 456kts
26-Sep-16 04:20 40.833116 -102.493833 74 37452ft 456kts
26-Sep-16 04:21 40.857687 -102.329425 74 37452ft 457kts
26-Sep-16 04:22 40.882153 -102.164013 75 37450ft 458kts
26-Sep-16 04:23 40.906501 -101.997665 75 37447ft 459kts
26-Sep-16 04:24 40.930489 -101.832019 74 37443ft 460kts
26-Sep-16 04:25 40.954384 -101.665242 74 37441ft 461kts
26-Sep-16 04:26 40.978082 -101.498028 74 37439ft 462kts
26-Sep-16 04:27 41.001604 -101.330215 74 37439ft 463kts
26-Sep-16 04:28 41.024932 -101.161914 74 37436ft 464kts
26-Sep-16 04:29 41.047977 -100.993765 74 37433ft 465kts
26-Sep-16 04:30 41.070946 -100.824257 74 37430ft 467kts
26-Sep-16 04:31 41.093787 -100.653729 74 37429ft 471kts
26-Sep-16 04:32 41.116573 -100.481552 74 37428ft 475kts
26-Sep-16 04:33 41.139262 -100.308037 75 37421ft 478kts
26-Sep-16 04:34 41.161739 -100.133997 75 37414ft 480kts
26-Sep-16 04:35 41.184151 -99.958264 74 37407ft 483kts
26-Sep-16 04:36 41.206165 -99.783255 74 37404ft 473kts
26-Sep-16 04:37 41.227407 -99.612396 74 37399ft 463kts
26-Sep-16 04:38 41.247979 -99.444894 74 37395ft 454kts
26-Sep-16 04:38 41.264685 -99.307483 74 37559ft 455kts
26-Sep-16 04:39 41.284624 -99.141378 74 39202ft 457kts
26-Sep-16 04:41 41.308743 -98.938205 75 39383ft 496kts
26-Sep-16 04:41 41.326885 -98.782708 75 39375ft 519kts
26-Sep-16 04:42 41.349059 -98.589933 75 39375ft 531kts
26-Sep-16 04:43 41.364599 -98.451833 75 39374ft 498kts
26-Sep-16 04:44 41.385701 -98.281905 70 39372ft 483kts
26-Sep-16 04:45 41.416758 -98.107801 69 39366ft 481kts
26-Sep-16 04:46 41.446108 -97.934233 69 39354ft 480kts
26-Sep-16 04:47 41.475030 -97.759566 70 39345ft 480kts
26-Sep-16 04:48 41.503404 -97.586121 70 39341ft 479kts
26-Sep-16 04:49 41.531589 -97.412005 70 39338ft 478kts
26-Sep-16 04:50 41.559470 -97.237995 71 39336ft 478kts
26-Sep-16 04:51 41.587105 -97.063709 71 39331ft 479kts
26-Sep-16 04:52 41.614398 -96.889770 71 39324ft 479kts
26-Sep-16 04:53 41.641624 -96.714407 71 39317ft 480kts
26-Sep-16 04:54 41.668457 -96.539717 71 39313ft 480kts
26-Sep-16 04:55 41.695064 -96.364619 71 39306ft 481kts
26-Sep-16 04:56 41.721526 -96.188570 71 39300ft 482kts
26-Sep-16 04:57 41.747859 -96.011409 71 39299ft 482kts
26-Sep-16 04:58 41.773766 -95.835164 71 39295ft 483kts
26-Sep-16 04:59 41.799601 -95.657395 72 39292ft 484kts
26-Sep-16 05:00 41.825135 -95.479672 72 39285ft 485kts
26-Sep-16 05:01 41.850354 -95.302122 73 39278ft 489kts
26-Sep-16 05:02 41.875715 -95.121484 73 39278ft 492kts
26-Sep-16 05:03 41.900971 -94.939364 74 39274ft 495kts
26-Sep-16 05:04 41.925830 -94.757905 74 39257ft 498kts
26-Sep-16 05:06 41.950701 -94.574083 75 39254ft 501kts
26-Sep-16 05:07 41.975590 -94.387764 75 39254ft 503kts
26-Sep-16 05:08 42.000109 -94.201798 75 39251ft 505kts
26-Sep-16 05:09 42.024271 -94.016130 75 39232ft 507kts
26-Sep-16 05:10 42.048390 -93.828304 75 39219ft 509kts
26-Sep-16 05:11 42.072189 -93.640460 76 39217ft 510kts
26-Sep-16 05:12 42.095799 -93.451460 76 39214ft 511kts
26-Sep-16 05:13 42.119112 -93.262082 77 39208ft 512kts
26-Sep-16 05:14 42.142142 -93.072315 77 39192ft 512kts
26-Sep-16 05:15 42.164966 -92.881449 78 39189ft 513kts
26-Sep-16 05:16 42.187336 -92.691700 78 39187ft 513kts
26-Sep-16 05:17 42.209537 -92.500480 79 39176ft 514kts
26-Sep-16 05:18 42.231334 -92.309919 79 39163ft 515kts
26-Sep-16 05:19 42.253008 -92.117647 79 39164ft 516kts
26-Sep-16 05:20 42.274173 -91.926915 80 39165ft 516kts
26-Sep-16 05:21 42.295266 -91.733780 80 39159ft 517kts
26-Sep-16 05:22 42.315900 -91.541742 80 39147ft 517kts
26-Sep-16 05:23 42.336355 -91.348238 81 39141ft 517kts
26-Sep-16 05:24 42.356413 -91.155265 81 39138ft 517kts
26-Sep-16 05:25 42.376127 -90.962358 82 39129ft 517kts
26-Sep-16 05:26 42.395528 -90.769222 83 39120ft 517kts
26-Sep-16 05:27 42.408186 -90.575635 90 39118ft 515kts
26-Sep-16 05:28 42.412597 -90.382234 90 39111ft 515kts
26-Sep-16 05:29 42.418203 -90.187516 90 39107ft 515kts
26-Sep-16 05:30 42.423702 -89.994173 90 39100ft 515kts
26-Sep-16 05:31 42.428948 -89.799826 91 39093ft 515kts
26-Sep-16 05:32 42.433869 -89.605532 91 39089ft 515kts
26-Sep-16 05:33 42.438446 -89.412012 91 39086ft 515kts
26-Sep-16 05:34 42.442711 -89.217664 92 39084ft 515kts
26-Sep-16 05:35 42.446658 -89.022799 92 39099ft 514kts
26-Sep-16 05:35 42.449673 -88.861594 93 39108ft 514kts
26-Sep-16 05:36 42.452997 -88.667465 93 39092ft 515kts
26-Sep-16 05:38 42.456475 -88.440127 94 39068ft 516kts
26-Sep-16 05:38 42.458674 -88.278377 94 39034ft 517kts
26-Sep-16 05:39 42.461022 -88.083440 94 39059ft 516kts
26-Sep-16 05:40 42.463039 -87.888391 95 39066ft 516kts
26-Sep-16 05:41 42.464721 -87.693800 95 39029ft 517kts
26-Sep-16 05:42 42.466077 -87.498621 95 39040ft 517kts
26-Sep-16 05:43 42.467101 -87.303165 95 39039ft 517kts
26-Sep-16 05:44 42.467791 -87.107898 95 39032ft 517kts
26-Sep-16 05:45 42.468149 -86.912780 95 39026ft 517kts
26-Sep-16 05:46 42.468174 -86.716979 95 39029ft 517kts
26-Sep-16 05:47 42.467865 -86.522614 95 39020ft 517kts
26-Sep-16 05:48 42.467229 -86.328170 95 39017ft 517kts
26-Sep-16 05:49 42.466306 -86.132226 95 39015ft 518kts
26-Sep-16 05:50 42.483660 -85.936099 86 39011ft 525kts
26-Sep-16 05:51 42.503183 -85.739787 86 39006ft 525kts
26-Sep-16 05:52 42.522527 -85.543832 86 39006ft 525kts
26-Sep-16 05:53 42.541702 -85.346647 86 38994ft 524kts
26-Sep-16 05:54 42.560398 -85.150987 86 38986ft 523kts
26-Sep-16 05:55 42.578759 -84.954964 86 38971ft 522kts
26-Sep-16 05:56 42.596762 -84.759345 86 38973ft 521kts
26-Sep-16 05:57 42.614355 -84.564167 86 38978ft 519kts
26-Sep-16 05:58 42.631495 -84.370345 86 38977ft 518kts
26-Sep-16 05:59 42.648360 -84.175808 86 38962ft 517kts
26-Sep-16 06:00 42.664856 -83.981592 85 38941ft 516kts
26-Sep-16 06:01 42.681000 -83.787648 86 38942ft 514kts
26-Sep-16 06:03 42.696752 -83.594345 86 38951ft 513kts
26-Sep-16 06:04 42.712133 -83.401482 86 38958ft 512kts
26-Sep-16 06:05 42.727158 -83.208935 86 38961ft 510kts
26-Sep-16 06:06 42.741743 -83.017827 86 38955ft 508kts
26-Sep-16 06:07 42.756018 -82.826527 86 38947ft 506kts
26-Sep-16 06:08 42.769951 -82.635434 86 38953ft 504kts
26-Sep-16 06:09 42.783427 -82.446220 86 38963ft 502kts
26-Sep-16 06:10 42.796520 -82.258022 86 38961ft 491kts
26-Sep-16 06:11 42.808898 -82.075726 86 38957ft 479kts
26-Sep-16 06:12 42.820808 -81.895950 85 38954ft 469kts
26-Sep-16 06:13 42.831989 -81.723260 86 36170ft 456kts
26-Sep-16 06:14 42.843008 -81.548717 87 31981ft 466kts
26-Sep-16 06:15 42.853961 -81.371019 87 28124ft 468kts
26-Sep-16 06:16 42.863893 -81.206335 87 26076ft 420kts
26-Sep-16 06:17 42.872945 -81.051866 87 23249ft 398kts
26-Sep-16 06:18 42.881309 -80.905885 87 19847ft 377kts
26-Sep-16 06:19 42.889169 -80.765602 87 17184ft 370kts
26-Sep-16 06:20 42.896685 -80.628698 87 15621ft 357kts
26-Sep-16 06:21 42.903835 -80.495469 87 13889ft 346kts
26-Sep-16 06:22 42.910584 -80.367487 87 13069ft 306kts
26-Sep-16 06:23 42.916142 -80.259226 88 11632ft 279kts
26-Sep-16 06:24 42.921349 -80.155946 88 9902ft 268kts
26-Sep-16 06:25 42.926329 -80.055700 88 8164ft 259kts
26-Sep-16 06:26 42.931146 -79.956658 88 8046ft 262kts
26-Sep-16 06:27 42.935931 -79.856792 88 8295ft 263kts
26-Sep-16 06:28 42.940590 -79.757844 88 7700ft 257kts
26-Sep-16 06:29 42.945079 -79.660715 89 6953ft 254kts
26-Sep-16 06:30 42.949422 -79.564944 90 6242ft 251kts
26-Sep-16 06:31 42.953606 -79.470894 90 5611ft 245kts
26-Sep-16 06:31 42.956965 -79.394098 90 5139ft 240kts
26-Sep-16 06:33 42.961447 -79.289545 90 4497ft 233kts
26-Sep-16 06:34 42.965124 -79.202249 91 4029ft 226kts
26-Sep-16 06:34 42.967995 -79.133032 91 4009ft 212kts
26-Sep-16 06:36 42.971819 -79.038554 91 4013ft 215kts
26-Sep-16 06:36 42.974480 -78.972164 91 4018ft 214kts
26-Sep-16 06:37 42.977691 -78.890420 91 4022ft 213kts
26-Sep-16 06:38 42.980789 -78.810172 91 4025ft 212kts
26-Sep-16 06:39 42.983855 -78.729395 91 4026ft 211kts
26-Sep-16 06:40 42.986842 -78.649038 91 4031ft 210kts
26-Sep-16 06:41 42.989750 -78.569344 91 4031ft 210kts
26-Sep-16 06:42 43.002547 -78.493554 48 4035ft 214kts
26-Sep-16 06:43 43.057433 -78.491107 317 4040ft 211kts
26-Sep-16 06:44 43.081102 -78.548788 232 4018ft 142kts
26-Sep-16 06:45 43.056338 -78.580975 229 4017ft 116kts
26-Sep-16 06:46 43.030041 -78.613139 195 4066ft 123kts
26-Sep-16 06:47 43.004131 -78.645725 216 2114ft 128kts
26-Sep-16 06:48 42.978892 -78.678705 220 1624ft 144kts
26-Sep-16 06:49 42.950960 -78.715477 221 777ft 111kts
26-Sep-16 06:50 42.939701 -78.730038 163 727ft 5kts
26-Sep-16 06:51 42.937435 -78.728296 118 727ft 11kts

Navigation Log

Ident Type
Flight plan parsing failed, navigation log unavailable